»·PEaware :: SWA1344 KPHX-KSNA

SWA1344 :: KPHX-KSNA

FLIGHT INFORMATION

Flight Status: Arrived
Operator:
Southwest Airlines
More flights by this operator :: More flights under this callsign
Pilot: Colin A. (19898)
Aircraft: BOEING 737-500
(B735)
More flights by this aircraft type
Origin: KPHX Phoenix Sky Harbor Intl
United States
Destination: KSNA John Wayne-Orange Co
United States
More flights between these airports :: More routes between these airports
Route: KEENS2 HRRBR EMLLD DSNEE4
File this flight plan on PilotEdge
Remarks: RMK / SIMBRIEF
Altitude:
(Current/Filed)
34,000ft
Speed:
(Current/Filed)
446kts
Departed: 09-Oct-19 08:15 AM
Arrived: 09-Oct-19 09:15 AM
Distance/Time
Traveled:
293nm/1:00
Distance/Time
To Go:
Arrived

Flight Plot

Page will automatically refresh every two minutes.

Flight plan parsing failed; only flown route is shown


Map Options




Map Legend


Flown Route
Filed Route
Departure Airport
Arrival Airport
Navaid (VOR, NDB)
Fix

Horizontal Profiles

Position Reports

Time Latitude Longitude Heading Altitude Ground
Speed
09-Oct-19 07:37 33.434107 -111.993728 283 1142ft 0kts
09-Oct-19 07:38 33.434107 -111.993728 283 1142ft 0kts
09-Oct-19 07:39 33.434107 -111.993728 283 1142ft 0kts
09-Oct-19 07:40 33.434107 -111.993728 283 1142ft 0kts
09-Oct-19 07:41 33.434107 -111.993728 283 1142ft 0kts
09-Oct-19 07:42 33.434107 -111.993728 283 1142ft 0kts
09-Oct-19 07:43 33.434107 -111.993728 283 1142ft 0kts
09-Oct-19 07:44 33.434107 -111.993728 283 1142ft 0kts
09-Oct-19 07:45 33.434107 -111.993728 283 1142ft 0kts
09-Oct-19 07:46 33.434107 -111.993728 283 1142ft 0kts
09-Oct-19 07:47 33.434107 -111.993728 283 1142ft 0kts
09-Oct-19 07:49 33.434107 -111.993728 283 1142ft 0kts
09-Oct-19 07:50 33.434107 -111.993728 283 1142ft 0kts
09-Oct-19 07:51 33.434107 -111.993728 283 1142ft 0kts
09-Oct-19 07:52 33.434107 -111.993728 283 1142ft 0kts
09-Oct-19 07:53 33.434107 -111.993728 283 1142ft 0kts
09-Oct-19 07:54 33.434107 -111.993728 283 1142ft 0kts
09-Oct-19 07:55 33.434107 -111.993728 283 1142ft 0kts
09-Oct-19 07:56 33.434107 -111.993728 283 1142ft 0kts
09-Oct-19 07:57 33.434107 -111.993728 283 1142ft 0kts
09-Oct-19 07:58 33.434107 -111.993728 283 1142ft 0kts
09-Oct-19 07:59 33.434107 -111.993728 283 1142ft 0kts
09-Oct-19 08:00 33.434107 -111.993728 283 1142ft 0kts
09-Oct-19 08:01 33.434107 -111.993728 283 1142ft 0kts
09-Oct-19 08:02 33.434107 -111.993728 283 1142ft 0kts
09-Oct-19 08:03 33.434107 -111.993728 283 1142ft 0kts
09-Oct-19 08:04 33.434038 -111.993384 283 1142ft 2kts
09-Oct-19 08:05 33.433889 -111.992632 283 1142ft 1kts
09-Oct-19 08:06 33.433878 -111.992579 283 1142ft 0kts
09-Oct-19 08:07 33.433884 -111.992617 280 1142ft 2kts
09-Oct-19 08:07 33.433634 -111.992992 182 1142ft 0kts
09-Oct-19 08:09 33.433578 -111.992995 182 1142ft 3kts
09-Oct-19 08:10 33.432113 -111.998124 269 1142ft 27kts
09-Oct-19 08:10 33.432111 -112.006553 270 1142ft 32kts
09-Oct-19 08:12 33.432121 -112.020095 269 1142ft 36kts
09-Oct-19 08:13 33.432044 -112.026834 226 1142ft 0kts
09-Oct-19 08:13 33.431072 -112.026702 112 1142ft 16kts
09-Oct-19 08:15 33.430686 -111.974809 91 1558ft 224kts
09-Oct-19 08:15 33.431372 -111.907303 106 2883ft 257kts
09-Oct-19 08:16 33.392216 -111.828790 122 5231ft 286kts
09-Oct-19 08:17 33.327609 -111.826554 242 7778ft 286kts
09-Oct-19 08:18 33.340271 -111.912802 283 10987ft 262kts
09-Oct-19 08:19 33.355976 -112.005590 279 12296ft 313kts
09-Oct-19 08:20 33.375698 -112.117007 281 13347ft 372kts
09-Oct-19 08:21 33.396590 -112.243647 280 15398ft 395kts
09-Oct-19 08:22 33.416729 -112.375451 280 17633ft 408kts
09-Oct-19 08:23 33.436851 -112.511168 279 19702ft 419kts
09-Oct-19 08:24 33.450556 -112.651074 270 21615ft 429kts
09-Oct-19 08:25 33.452714 -112.795111 273 23351ft 438kts
09-Oct-19 08:26 33.478532 -112.938687 282 24855ft 444kts
09-Oct-19 08:27 33.505501 -113.082747 282 26716ft 438kts
09-Oct-19 08:28 33.531278 -113.221813 282 28580ft 428kts
09-Oct-19 08:29 33.556675 -113.359905 282 30226ft 420kts
09-Oct-19 08:30 33.581471 -113.495653 281 31656ft 413kts
09-Oct-19 08:31 33.606157 -113.628842 281 32976ft 406kts
09-Oct-19 08:32 33.643965 -113.755004 299 33803ft 411kts
09-Oct-19 08:33 33.674639 -113.884255 286 33813ft 400kts
09-Oct-19 08:34 33.713221 -114.009764 280 33798ft 401kts
09-Oct-19 08:35 33.730150 -114.140748 280 33802ft 401kts
09-Oct-19 08:36 33.750145 -114.272448 279 33793ft 400kts
09-Oct-19 08:37 33.769897 -114.403671 279 33788ft 402kts
09-Oct-19 08:38 33.789518 -114.533759 279 33773ft 401kts
09-Oct-19 08:39 33.809455 -114.666356 279 33773ft 402kts
09-Oct-19 08:40 33.829191 -114.798744 279 33774ft 404kts
09-Oct-19 08:41 33.848717 -114.931915 277 33775ft 403kts
09-Oct-19 08:42 33.863268 -115.065287 277 33785ft 401kts
09-Oct-19 08:43 33.877708 -115.198489 277 33802ft 402kts
09-Oct-19 08:44 33.892189 -115.331699 277 33818ft 401kts
09-Oct-19 08:45 33.906559 -115.464612 277 33419ft 393kts
09-Oct-19 08:46 33.920483 -115.594879 277 30747ft 391kts
09-Oct-19 08:47 33.932126 -115.727146 275 29539ft 390kts
09-Oct-19 08:48 33.941241 -115.859544 275 28552ft 394kts
09-Oct-19 08:49 33.950414 -115.994201 275 27554ft 397kts
09-Oct-19 08:50 33.959740 -116.130150 275 26563ft 402kts
09-Oct-19 08:51 33.956772 -116.269889 262 24928ft 426kts
09-Oct-19 08:52 33.939039 -116.411982 262 23635ft 428kts
09-Oct-19 08:53 33.921648 -116.551394 262 21729ft 416kts
09-Oct-19 08:54 33.904263 -116.685983 261 19449ft 380kts
09-Oct-19 08:55 33.888983 -116.810250 263 17578ft 368kts
09-Oct-19 08:56 33.876051 -116.929787 263 15527ft 351kts
09-Oct-19 08:57 33.863504 -117.043990 262 13480ft 336kts
09-Oct-19 08:58 33.851754 -117.149662 262 12140ft 300kts
09-Oct-19 08:59 33.841103 -117.244079 262 10822ft 271kts
09-Oct-19 09:00 33.831317 -117.330600 261 9705ft 256kts
09-Oct-19 09:01 33.821754 -117.415151 261 8674ft 254kts
09-Oct-19 09:02 33.801433 -117.495366 249 7726ft 250kts
09-Oct-19 09:03 33.813088 -117.572574 293 7346ft 251kts
09-Oct-19 09:04 33.841008 -117.648514 292 6319ft 243kts
09-Oct-19 09:05 33.867960 -117.723776 291 6307ft 246kts
09-Oct-19 09:06 33.893966 -117.800585 293 6214ft 250kts
09-Oct-19 09:07 33.943745 -117.794953 82 4939ft 235kts
09-Oct-19 09:08 33.901792 -117.747031 175 3645ft 217kts
09-Oct-19 09:09 33.853878 -117.759206 203 2999ft 209kts
09-Oct-19 09:10 33.800984 -117.789523 208 2823ft 209kts
09-Oct-19 09:11 33.750486 -117.821377 208 1575ft 190kts
09-Oct-19 09:12 33.710055 -117.847042 208 723ft 141kts
09-Oct-19 09:13 33.678044 -117.867339 208 65ft 114kts
09-Oct-19 09:14 33.667570 -117.872930 105 63ft 1kts
09-Oct-19 09:15 33.667927 -117.872194 43 63ft 10kts
09-Oct-19 09:16 33.672602 -117.867781 39 63ft 23kts
09-Oct-19 09:17 33.676949 -117.864604 49 63ft 10kts
09-Oct-19 09:18 33.676789 -117.863922 118 63ft 0kts

Navigation Log

Ident Type
Flight plan parsing failed, navigation log unavailable